Time;durP1;ratioP1;P1;durP2;ratioP2;P2;SDS_P1;SDS_P2;PMS_P1;PMS_P2;Temp;Humidity;BMP_temperature;BMP_pressure;BME280_temperature;BME280_humidity;BME280_pressure;Samples;Min_cycle;Max_cycle;Signal;HPM_P1;HPM_P2
2023/03/24 00:01:49;;;;;;;;;;;;;;;-144.99;100.00;52452.16;5006008;28;19973;-78
2023/03/24 00:04:16;;;;;;;;;;;;;;;-144.99;100.00;52407.31;5004139;28;19967;-78
2023/03/24 00:06:43;;;;;;;;;;;;;;;-144.99;100.00;52419.56;5005301;28;19956;-76
2023/03/24 00:09:11;;;;;;;;;;;;;;;-144.99;100.00;52476.63;5003131;28;20334;-74
2023/03/24 00:11:38;;;;;;;;;;;;;;;-144.99;100.00;52452.16;5006772;28;20015;-77
2023/03/24 00:14:05;;;;;;;;;;;;;;;-144.99;100.00;52448.09;5005233;28;20010;-76
2023/03/24 00:16:33;;;;;;;;;;;;;;;-144.99;100.00;52380.84;5005375;28;19958;-76
2023/03/24 00:19:00;;;;;;;;;;;;;;;-144.99;100.00;52444.03;5006698;28;19933;-75
2023/03/24 00:21:26;;;;;;;;;;;;;;;-144.99;100.00;52460.31;5030739;28;19954;-76
2023/03/24 00:23:54;;;;;;;;;;;;;;;-144.99;100.00;52433.81;5009950;28;20370;-78
2023/03/24 00:26:23;;;;;;;;;;;;;;;-144.99;100.00;52444.03;5005843;28;19975;-78
2023/03/24 00:28:50;;;;;;;;;;;;;;;-144.99;100.00;52460.31;5007680;28;20300;-76
2023/03/24 00:31:17;;;;;;;;;;;;;;;-144.99;100.00;52427.72;5005536;28;20013;-77
2023/03/24 00:33:49;;;;;;;;;;;;;;;-144.99;100.00;52448.09;5004855;28;19933;-76
2023/03/24 00:36:17;;;;;;;;;;;;;;;-144.99;100.00;52448.09;5004356;28;20308;-76
2023/03/24 00:38:44;;;;;;;;;;;;;;;-144.99;100.00;52444.03;5000975;28;19972;-76
2023/03/24 00:41:10;;;;;;;;;;;;;;;-144.99;100.00;52419.56;5003902;28;19966;-75
2023/03/24 00:43:39;;;;;;;;;;;;;;;-144.99;100.00;52452.16;5004419;28;19963;-74
2023/03/24 00:46:06;;;;;;;;;;;;;;;-144.99;100.00;52452.16;5001041;28;20290;-74
2023/03/24 00:48:33;;;;;;;;;;;;;;;-144.99;100.00;52437.91;5000279;28;20047;-77
2023/03/24 00:51:01;;;;;;;;;;;;;;;-144.99;100.00;52431.78;5007245;28;20028;-76
2023/03/24 00:53:29;;;;;;;;;;;;;;;-144.99;100.00;52456.25;4997996;28;20056;-77
2023/03/24 00:55:55;;;;;;;;;;;;;;;-144.99;100.00;52439.94;5003410;28;19926;-76
2023/03/24 00:58:22;;;;;;;;;;;;;;;-144.99;100.00;52415.47;5010092;28;19933;-77
2023/03/24 01:00:51;;;;;;;;;;;;;;;-144.99;100.00;52480.72;5023606;28;19914;-79
2023/03/24 01:03:20;;;;;;;;;;;;;;;-144.99;100.00;52476.63;5000278;28;19930;-73
2023/03/24 01:05:47;;;;;;;;;;;;;;;-144.99;100.00;52460.31;5003113;28;19961;-76
2023/03/24 01:08:14;;;;;;;;;;;;;;;-144.99;100.00;52439.94;5003574;28;19994;-74
2023/03/24 01:10:49;;;;;;;;;;;;;;;-144.99;100.00;52427.72;4997888;28;20017;-76
2023/03/24 01:13:15;;;;;;;;;;;;;;;-144.99;100.00;52460.31;5003884;28;20430;-76
2023/03/24 01:15:42;;;;;;;;;;;;;;;-144.99;100.00;52468.47;5003635;28;19929;-75
2023/03/24 01:18:11;;;;;;;;;;;;;;;-144.99;100.00;52444.03;5001549;28;19952;-77
2023/03/24 01:20:39;;;;;;;;;;;;;;;-144.99;100.00;52435.88;4997518;28;20341;-76
2023/03/24 01:23:06;;;;;;;;;;;;;;;-144.99;100.00;52444.03;5002603;28;19966;-80
2023/03/24 01:25:34;;;;;;;;;;;;;;;-144.99;100.00;52425.66;5003083;28;20007;-74
2023/03/24 01:28:01;;;;;;;;;;;;;;;-144.99;100.00;52419.56;5006791;28;20312;-77
2023/03/24 01:30:29;;;;;;;;;;;;;;;-144.99;100.00;52439.94;5003565;28;19941;-76
2023/03/24 01:32:55;;;;;;;;;;;;;;;-144.99;100.00;52474.59;5003198;28;19937;-75
2023/03/24 01:35:25;;;;;;;;;;;;;;;-144.99;100.00;52464.41;5004041;28;20011;-77
2023/03/24 01:37:51;;;;;;;;;;;;;;;-144.99;100.00;52456.25;5022104;28;19913;-83
2023/03/24 01:40:20;;;;;;;;;;;;;;;-144.99;100.00;52403.25;5013347;28;20032;-74
2023/03/24 01:42:46;;;;;;;;;;;;;;;-144.99;100.00;52435.88;5002171;28;19925;-75
2023/03/24 01:45:31;;;;;;;;;;;;;;;-144.99;100.00;52423.63;5003843;28;19925;-72
2023/03/24 01:47:58;;;;;;;;;;;;;;;-144.99;100.00;52407.31;5002017;28;20336;-76
2023/03/24 01:50:26;;;;;;;;;;;;;;;-144.99;100.00;52435.88;5005745;28;19941;-71
2023/03/24 01:52:52;;;;;;;;;;;;;;;-144.99;100.00;52484.78;5006713;28;19933;-71
2023/03/24 01:55:20;;;;;;;;;;;;;;;-144.99;100.00;52452.16;5006102;28;19959;-73
2023/03/24 01:57:48;;;;;;;;;;;;;;;-144.99;100.00;52468.47;5006654;28;19936;-74
2023/03/24 02:00:17;;;;;;;;;;;;;;;-144.99;100.00;52435.88;5006882;28;20007;-72
2023/03/24 02:02:45;;;;;;;;;;;;;;;-144.99;100.00;52407.31;5004625;28;20110;-73
2023/03/24 02:05:13;;;;;;;;;;;;;;;-144.99;100.00;52452.16;5008471;28;19933;-73
2023/03/24 02:07:46;;;;;;;;;;;;;;;-144.99;100.00;52444.03;5006924;28;20297;-75
2023/03/24 02:10:14;;;;;;;;;;;;;;;-144.99;100.00;52407.31;5007047;28;19951;-75
2023/03/24 02:12:41;;;;;;;;;;;;;;;-144.99;100.00;52448.09;5006237;28;20331;-72
2023/03/24 02:15:10;;;;;;;;;;;;;;;-144.99;100.00;52456.25;5017994;28;20142;-83
2023/03/24 02:17:48;;;;;;;;;;;;;;;-144.99;100.00;52460.31;5032973;28;19997;-82
2023/03/24 02:20:33;;;;;;;;;;;;;;;-144.99;100.00;52468.47;5006335;28;19929;-77
2023/03/24 02:23:14;;;;;;;;;;;;;;;-144.99;100.00;52429.75;4996511;28;19934;-77
2023/03/24 02:26:04;;;;;;;;;;;;;;;-144.99;100.00;52435.88;4996930;28;19940;-76
2023/03/24 02:28:37;;;;;;;;;;;;;;;-144.99;100.00;52448.09;4988821;28;20170;-75
2023/03/24 02:31:23;;;;;;;;;;;;;;;-144.99;100.00;52435.88;5005870;28;20372;-76
2023/03/24 02:34:10;;;;;;;;;;;;;;;-144.99;100.00;52417.53;5003778;28;19960;-75
2023/03/24 02:36:47;;;;;;;;;;;;;;;-144.99;100.00;52427.72;5004867;28;20316;-75
2023/03/24 02:39:33;;;;;;;;;;;;;;;-144.99;100.00;52415.47;5002518;28;21338;-79
2023/03/24 02:42:06;;;;;;;;;;;;;;;-144.99;100.00;52476.63;5004854;28;20415;-78
2023/03/24 02:44:38;;;;;;;;;;;;;;;-144.99;100.00;52452.16;5006822;28;19936;-77
2023/03/24 02:47:07;;;;;;;;;;;;;;;-144.99;100.00;52450.13;5006632;28;19930;-79
2023/03/24 02:49:41;;;;;;;;;;;;;;;-144.99;100.00;52456.25;5004826;28;20013;-79
2023/03/24 02:52:12;;;;;;;;;;;;;;;-144.99;100.00;52433.81;5009087;28;20316;-74
2023/03/24 02:54:44;;;;;;;;;;;;;;;-144.99;100.00;52429.75;5002202;28;19952;-74
2023/03/24 02:57:16;;;;;;;;;;;;;;;-144.99;100.00;52444.03;5004399;28;20054;-73
2023/03/24 02:59:44;;;;;;;;;;;;;;;-144.99;100.00;52439.94;5005446;28;19925;-76
2023/03/24 03:02:14;;;;;;;;;;;;;;;-144.99;100.00;52431.78;5004790;28;19992;-80
2023/03/24 03:04:45;;;;;;;;;;;;;;;-144.99;100.00;52415.47;5005227;28;19955;-78
2023/03/24 03:07:15;;;;;;;;;;;;;;;-144.99;100.00;52427.72;5005607;28;19990;-75
2023/03/24 03:09:49;;;;;;;;;;;;;;;-144.99;100.00;52439.94;4998356;28;19926;-74
2023/03/24 03:12:17;;;;;;;;;;;;;;;-144.99;100.00;52435.88;5003524;28;20000;-76
2023/03/24 03:14:46;;;;;;;;;;;;;;;-144.99;100.00;52456.25;5004974;28;20031;-76
2023/03/24 03:17:14;;;;;;;;;;;;;;;-144.99;100.00;52433.81;5005643;28;20030;-73
2023/03/24 03:19:42;;;;;;;;;;;;;;;-144.99;100.00;52460.31;5003218;28;19926;-75
2023/03/24 03:22:12;;;;;;;;;;;;;;;-144.99;100.00;52441.97;5004048;28;19958;-72
2023/03/24 03:24:42;;;;;;;;;;;;;;;-144.99;100.00;52494.97;5003727;28;19930;-77
2023/03/24 03:27:13;;;;;;;;;;;;;;;-144.99;100.00;52458.28;5001947;28;20418;-73
2023/03/24 03:29:41;;;;;;;;;;;;;;;-144.99;100.00;52425.66;5004520;28;19961;-73
2023/03/24 03:32:10;;;;;;;;;;;;;;;-144.99;100.00;52439.94;5005345;28;19967;-73
2023/03/24 03:34:41;;;;;;;;;;;;;;;-144.99;100.00;52411.41;5005157;28;19933;-78
2023/03/24 03:37:11;;;;;;;;;;;;;;;-144.99;100.00;52407.31;4998105;28;19946;-75
2023/03/24 03:39:41;;;;;;;;;;;;;;;-144.99;100.00;52444.03;5004964;28;20725;-76
2023/03/24 03:42:07;;;;;;;;;;;;;;;-144.99;100.00;52464.41;5001152;28;19960;-77
2023/03/24 03:44:35;;;;;;;;;;;;;;;-144.99;100.00;52419.56;5003151;28;19942;-76
2023/03/24 03:47:02;;;;;;;;;;;;;;;-144.99;100.00;52429.75;5003938;28;19961;-75
2023/03/24 03:49:28;;;;;;;;;;;;;;;-144.99;100.00;52433.81;5001837;28;19929;-74
2023/03/24 03:51:56;;;;;;;;;;;;;;;-144.99;100.00;52478.66;5002840;28;19942;-75
2023/03/24 03:54:24;;;;;;;;;;;;;;;-144.99;100.00;52403.25;4999473;28;19943;-74
2023/03/24 03:56:51;;;;;;;;;;;;;;;-144.99;100.00;52439.94;5004280;28;20374;-74
2023/03/24 03:59:24;;;;;;;;;;;;;;;-144.99;100.00;52439.94;4999565;28;19925;-74
2023/03/24 04:01:52;;;;;;;;;;;;;;;-144.99;100.00;52427.72;5004968;28;19926;-76
2023/03/24 04:04:32;;;;;;;;;;;;;;;-144.99;100.00;52391.03;5003017;28;19939;-74
2023/03/24 04:07:06;;;;;;;;;;;;;;;-144.99;100.00;52462.34;5005107;28;20047;-74
2023/03/24 04:09:37;;;;;;;;;;;;;;;-144.99;100.00;52439.94;4998733;28;19936;-73
2023/03/24 04:12:27;;;;;;;;;;;;;;;-144.99;100.00;52439.94;5002699;28;19933;-74
2023/03/24 04:15:10;;;;;;;;;;;;;;;-144.99;100.00;52439.94;5001790;28;19980;-74
2023/03/24 04:17:51;;;;;;;;;;;;;;;-144.99;100.00;52399.19;4999154;28;20014;-74
2023/03/24 04:20:21;;;;;;;;;;;;;;;-144.99;100.00;52372.69;5002629;28;19937;-77
2023/03/24 04:22:56;;;;;;;;;;;;;;;-144.99;100.00;52439.94;5002824;28;20452;-74
2023/03/24 04:25:26;;;;;;;;;;;;;;;-144.99;100.00;52407.31;5001222;28;20301;-75
2023/03/24 04:27:59;;;;;;;;;;;;;;;-144.99;100.00;52427.72;5002273;28;19992;-75
2023/03/24 04:30:31;;;;;;;;;;;;;;;-144.99;100.00;52427.72;5001594;28;19926;-76
2023/03/24 04:33:00;;;;;;;;;;;;;;;-144.99;100.00;52419.56;5003323;28;19940;-75
2023/03/24 04:35:31;;;;;;;;;;;;;;;-144.99;100.00;52427.72;5004709;28;20250;-76
2023/03/24 04:38:01;;;;;;;;;;;;;;;-144.99;100.00;52386.94;5001995;28;20191;-74
2023/03/24 04:40:28;;;;;;;;;;;;;;;-144.99;100.00;52419.56;5002625;28;19925;-79
2023/03/24 04:42:56;;;;;;;;;;;;;;;-144.99;100.00;52448.09;5000263;28;20486;-76
2023/03/24 04:45:24;;;;;;;;;;;;;;;-144.99;100.00;52423.63;5004297;28;19977;-75
2023/03/24 04:47:52;;;;;;;;;;;;;;;-144.99;100.00;52382.88;5001873;28;19994;-74
2023/03/24 04:50:30;;;;;;;;;;;;;;;-144.99;100.00;52444.03;5006365;28;19929;-79
2023/03/24 04:52:56;;;;;;;;;;;;;;;-144.99;100.00;52427.72;5000770;28;19969;-78
2023/03/24 04:55:33;;;;;;;;;;;;;;;-144.99;100.00;52435.88;5001738;28;19960;-76
2023/03/24 04:58:00;;;;;;;;;;;;;;;-144.99;100.00;52444.03;5002714;28;19985;-75
2023/03/24 05:00:27;;;;;;;;;;;;;;;-144.99;100.00;52407.31;5001412;28;20040;-74
2023/03/24 05:02:54;;;;;;;;;;;;;;;-144.99;100.00;52395.09;5000430;28;19936;-76
2023/03/24 05:05:20;;;;;;;;;;;;;;;-144.99;100.00;52439.94;5003114;28;20028;-72
2023/03/24 05:07:49;;;;;;;;;;;;;;;-144.99;100.00;52435.88;5001868;28;20052;-75
2023/03/24 05:10:15;;;;;;;;;;;;;;;-144.99;100.00;52468.47;5003172;28;19929;-73
2023/03/24 05:12:42;;;;;;;;;;;;;;;-144.99;100.00;52468.47;5002482;28;20043;-76
2023/03/24 05:15:09;;;;;;;;;;;;;;;-144.99;100.00;52431.78;5006538;28;20014;-74
2023/03/24 05:17:35;;;;;;;;;;;;;;;-144.99;100.00;52452.16;5005758;28;20031;-73
2023/03/24 05:20:05;;;;;;;;;;;;;;;-144.99;100.00;52431.78;5005099;28;19991;-74
2023/03/24 05:22:32;;;;;;;;;;;;;;;-144.99;100.00;52415.47;5005060;28;19964;-75
2023/03/24 05:24:59;;;;;;;;;;;;;;;-144.99;100.00;52403.25;5002410;28;20024;-75
2023/03/24 05:27:26;;;;;;;;;;;;;;;-144.99;100.00;52435.88;5008451;28;20406;-80
2023/03/24 05:29:52;;;;;;;;;;;;;;;-144.99;100.00;52417.53;5011554;28;20077;-79
2023/03/24 05:32:19;;;;;;;;;;;;;;;-144.99;100.00;52431.78;5007453;28;20419;-80
2023/03/24 05:34:45;;;;;;;;;;;;;;;-144.99;100.00;52421.59;5007437;28;20349;-78
2023/03/24 05:37:15;;;;;;;;;;;;;;;-144.99;100.00;52446.06;5009769;28;20345;-79
2023/03/24 05:39:42;;;;;;;;;;;;;;;-144.99;100.00;52456.25;5000467;28;19934;-78
2023/03/24 05:42:10;;;;;;;;;;;;;;;-144.99;100.00;52393.06;5009473;28;20468;-76
2023/03/24 05:44:36;;;;;;;;;;;;;;;-144.99;100.00;52444.03;5009168;28;19929;-75
2023/03/24 05:47:03;;;;;;;;;;;;;;;-144.99;100.00;52452.16;5006734;28;19976;-80
2023/03/24 05:49:30;;;;;;;;;;;;;;;-144.99;100.00;52419.56;5004391;28;20032;-78
2023/03/24 05:51:57;;;;;;;;;;;;;;;-144.99;100.00;52435.88;5006966;28;20321;-77
2023/03/24 05:54:23;;;;;;;;;;;;;;;-144.99;100.00;52403.25;5003332;28;19961;-74
2023/03/24 05:56:50;;;;;;;;;;;;;;;-144.99;100.00;52403.25;5005994;28;20460;-77
2023/03/24 05:59:18;;;;;;;;;;;;;;;-144.99;100.00;52458.28;5004944;28;20164;-77
2023/03/24 06:01:44;;;;;;;;;;;;;;;-144.99;100.00;52382.88;5006131;28;19929;-78
2023/03/24 06:04:12;;;;;;;;;;;;;;;-144.99;100.00;52403.25;5005009;28;20023;-78
2023/03/24 06:06:39;;;;;;;;;;;;;;;-144.99;100.00;52403.25;5008185;28;19929;-77
2023/03/24 06:09:06;;;;;;;;;;;;;;;-144.99;100.00;52407.31;5019980;28;19932;-77
2023/03/24 06:11:32;;;;;;;;;;;;;;;-144.99;100.00;52431.78;5006584;28;20400;-78
2023/03/24 06:13:59;;;;;;;;;;;;;;;-144.99;100.00;52439.94;4311513;28;10001080;-78
2023/03/24 06:16:27;;;;;;;;;;;;;;;-144.99;100.00;52419.56;5004396;28;20058;-79
2023/03/24 06:18:53;;;;;;;;;;;;;;;-144.99;100.00;52415.47;5001577;28;19930;-80
2023/03/24 06:21:21;;;;;;;;;;;;;;;-144.99;100.00;52419.56;5006723;28;20401;-75
2023/03/24 06:23:47;;;;;;;;;;;;;;;-144.99;100.00;52399.19;4998560;28;20023;-74
2023/03/24 06:26:15;;;;;;;;;;;;;;;-144.99;100.00;52419.56;5002681;28;20023;-79
2023/03/24 06:28:42;;;;;;;;;;;;;;;-144.99;100.00;52429.75;5006710;28;19938;-75
2023/03/24 06:31:13;;;;;;;;;;;;;;;-144.99;100.00;52423.63;5004108;28;20027;-77
2023/03/24 06:33:41;;;;;;;;;;;;;;;-144.99;100.00;52427.72;5004447;28;19986;-77
2023/03/24 06:36:08;;;;;;;;;;;;;;;-144.99;100.00;52399.19;5003713;28;20029;-77
2023/03/24 06:38:34;;;;;;;;;;;;;;;-144.99;100.00;52437.91;5001837;28;19955;-75
2023/03/24 06:41:01;;;;;;;;;;;;;;;-144.99;100.00;52423.63;5004006;28;20020;-76
2023/03/24 06:43:27;;;;;;;;;;;;;;;-144.99;100.00;52407.31;5007494;28;20016;-76
2023/03/24 06:45:54;;;;;;;;;;;;;;;-144.99;100.00;52423.63;5002831;28;19930;-78
2023/03/24 06:48:20;;;;;;;;;;;;;;;-144.99;100.00;52423.63;5002745;28;19968;-75
2023/03/24 06:50:48;;;;;;;;;;;;;;;-144.99;100.00;52374.72;5003970;28;19972;-79
2023/03/24 06:53:15;;;;;;;;;;;;;;;-144.99;100.00;52429.75;5003450;28;19929;-77
2023/03/24 06:55:41;;;;;;;;;;;;;;;-144.99;100.00;52407.31;5009396;28;19929;-76
2023/03/24 06:58:09;;;;;;;;;;;;;;;-144.99;100.00;52415.47;5004899;28;20481;-75
2023/03/24 07:00:35;;;;;;;;;;;;;;;-144.99;100.00;52415.47;5006117;28;19980;-75
2023/03/24 07:03:02;;;;;;;;;;;;;;;-144.99;100.00;52391.03;5006007;28;19929;-78
2023/03/24 07:05:29;;;;;;;;;;;;;;;-144.99;100.00;52431.78;5002934;28;19930;-78
2023/03/24 07:07:57;;;;;;;;;;;;;;;-144.99;100.00;52391.03;5005270;28;19929;-78
2023/03/24 07:10:23;;;;;;;;;;;;;;;-144.99;100.00;52415.47;5002101;28;19933;-79
2023/03/24 07:12:50;;;;;;;;;;;;;;;-144.99;100.00;52407.31;5003304;28;19929;-78
2023/03/24 07:15:16;;;;;;;;;;;;;;;-144.99;100.00;52423.63;4996797;28;19929;-82
2023/03/24 07:17:43;;;;;;;;;;;;;;;-144.99;100.00;52431.78;4997195;28;20120;-76
2023/03/24 07:20:10;;;;;;;;;;;;;;;-144.99;100.00;52419.56;5006063;28;19960;-77
2023/03/24 07:22:37;;;;;;;;;;;;;;;-144.99;100.00;52407.31;5002466;28;19951;-76
2023/03/24 07:25:05;;;;;;;;;;;;;;;-144.99;100.00;52417.53;4999916;28;20013;-75
2023/03/24 07:27:32;;;;;;;;;;;;;;;-144.99;100.00;52399.19;5006591;28;19986;-76
2023/03/24 07:29:59;;;;;;;;;;;;;;;-144.99;100.00;52399.19;5011636;28;20001;-79
2023/03/24 07:32:27;;;;;;;;;;;;;;;-144.99;100.00;52407.31;5007074;28;20296;-76
2023/03/24 07:34:54;;;;;;;;;;;;;;;-144.99;100.00;52401.22;5005421;28;19951;-77
2023/03/24 07:37:21;;;;;;;;;;;;;;;-144.99;100.00;52386.94;5008113;28;19991;-76
2023/03/24 07:39:47;;;;;;;;;;;;;;;-144.99;100.00;52415.47;5005313;28;19930;-78
2023/03/24 07:42:15;;;;;;;;;;;;;;;-144.99;100.00;52429.75;5003423;28;20458;-75
2023/03/24 07:44:41;;;;;;;;;;;;;;;-144.99;99.27;52429.75;5007685;28;19937;-75
2023/03/24 07:47:08;;;;;;;;;;;;;;;-144.99;97.52;52415.47;5003889;28;19996;-75
2023/03/24 07:49:34;;;;;;;;;;;;;;;-144.99;96.54;52415.47;5005071;28;19961;-81
2023/03/24 07:52:05;;;;;;;;;;;;;;;-144.99;96.05;52427.72;5006065;28;19987;-77
2023/03/24 07:54:32;;;;;;;;;;;;;;;-144.99;95.26;52415.47;5000199;28;20375;-79
2023/03/24 07:56:58;;;;;;;;;;;;;;;-144.99;96.44;52374.72;4658969;28;10000592;-74
2023/03/24 07:59:27;;;;;;;;;;;;;;;-144.99;95.25;52409.38;5004016;28;19985;-80
2023/03/24 08:01:53;;;;;;;;;;;;;;;-144.99;94.11;52431.78;5003825;28;19929;-80
2023/03/24 08:04:19;;;;;;;;;;;;;;;-144.99;94.52;52413.44;5005856;28;20250;-79
2023/03/24 08:06:46;;;;;;;;;;;;;;;-144.99;94.16;52374.72;5005127;28;19975;-76
2023/03/24 08:09:13;;;;;;;;;;;;;;;-144.99;91.43;52391.03;5006269;28;20403;-81
2023/03/24 08:11:40;;;;;;;;;;;;;;;-144.99;89.97;52403.25;5005076;28;19944;-79
2023/03/24 08:14:06;;;;;;;;;;;;;;;-144.99;91.08;52439.94;5003210;28;20480;-74
2023/03/24 08:16:34;;;;;;;;;;;;;;;-144.99;91.32;52384.91;5004868;28;20092;-77
2023/03/24 08:19:01;;;;;;;;;;;;;;;-144.99;90.16;52413.44;5002545;28;20013;-78
2023/03/24 08:21:27;;;;;;;;;;;;;;;-144.99;88.84;52403.25;5003443;28;19930;-80
2023/03/24 08:23:54;;;;;;;;;;;;;;;-144.99;88.72;52384.91;4994968;28;20158;-78
2023/03/24 08:26:21;;;;;;;;;;;;;;;-144.99;87.04;52425.66;5004733;28;19987;-78
2023/03/24 08:28:48;;;;;;;;;;;;;;;-144.99;86.33;52399.19;5006412;28;20321;-78
2023/03/24 08:31:14;;;;;;;;;;;;;;;-144.99;87.02;52423.63;5003483;28;20020;-75
2023/03/24 08:33:42;;;;;;;;;;;;;;;-144.99;86.47;52407.31;5007686;28;19929;-75
2023/03/24 08:36:09;;;;;;;;;;;;;;;-144.99;86.32;52421.59;5008829;28;19979;-78
2023/03/24 08:38:37;;;;;;;;;;;;;;;-144.99;84.53;52399.19;5011409;28;20048;-75
2023/03/24 08:41:05;;;;;;;;;;;;;;;-144.99;84.44;52374.72;5000889;28;19933;-78
2023/03/24 08:43:32;;;;;;;;;;;;;;;-144.99;84.74;52439.94;5002952;28;20439;-77
2023/03/24 08:45:59;;;;;;;;;;;;;;;-144.99;84.60;52403.25;5001840;28;20004;-78
2023/03/24 08:48:26;;;;;;;;;;;;;;;-144.99;82.88;52427.72;5002153;28;19933;-79
2023/03/24 08:50:55;;;;;;;;;;;;;;;-144.99;83.38;52415.47;5002665;28;20175;-78
2023/03/24 08:53:22;;;;;;;;;;;;;;;-144.99;83.78;52419.56;5003792;28;20680;-76
2023/03/24 08:55:48;;;;;;;;;;;;;;;-144.99;83.73;52444.03;5006396;28;20009;-77
2023/03/24 08:58:15;;;;;;;;;;;;;;;-144.99;83.88;52417.53;5003401;28;19929;-79
2023/03/24 09:00:42;;;;;;;;;;;;;;;-144.99;84.23;52399.19;5003996;28;19973;-77
2023/03/24 09:03:10;;;;;;;;;;;;;;;-144.99;84.63;52427.72;5008229;28;19948;-76
2023/03/24 09:05:37;;;;;;;;;;;;;;;-144.99;85.17;52423.63;5004559;28;19957;-77
2023/03/24 09:08:05;;;;;;;;;;;;;;;-144.99;85.06;52439.94;5001823;28;19926;-77
2023/03/24 09:10:32;;;;;;;;;;;;;;;-144.99;85.87;52399.19;5000705;28;19948;-77
2023/03/24 09:12:58;;;;;;;;;;;;;;;-144.99;86.43;52413.44;5002009;28;20067;-78
2023/03/24 09:15:25;;;;;;;;;;;;;;;-144.99;86.54;52423.63;5003898;28;19929;-79
2023/03/24 09:17:51;;;;;;;;;;;;;;;-144.99;85.90;52427.72;5003762;28;19965;-78
2023/03/24 09:20:19;;;;;;;;;;;;;;;-144.99;85.59;52423.63;5002816;28;19965;-77
2023/03/24 09:22:46;;;;;;;;;;;;;;;-144.99;85.77;52452.16;5001922;28;20024;-79
2023/03/24 09:25:15;;;;;;;;;;;;;;;-144.99;83.99;52427.72;5004703;28;20400;-78
2023/03/24 09:27:41;;;;;;;;;;;;;;;-144.99;84.45;52427.72;5012040;28;19991;-80
2023/03/24 09:30:09;;;;;;;;;;;;;;;-144.99;83.94;52415.47;5004819;28;20028;-77
2023/03/24 09:32:36;;;;;;;;;;;;;;;-144.99;84.29;52456.25;5001894;28;20024;-77
2023/03/24 09:35:03;;;;;;;;;;;;;;;-144.99;84.27;52415.47;5002782;28;19938;-79
2023/03/24 09:37:29;;;;;;;;;;;;;;;-144.99;84.12;52431.78;5004545;28;19996;-77
2023/03/24 09:39:57;;;;;;;;;;;;;;;-144.99;83.41;52419.56;5003371;28;19935;-77
2023/03/24 09:42:27;;;;;;;;;;;;;;;-144.99;83.24;52464.41;5003072;28;19929;-76
2023/03/24 09:44:55;;;;;;;;;;;;;;;-144.99;82.99;52415.47;5001074;28;20024;-76
2023/03/24 09:47:26;;;;;;;;;;;;;;;-144.99;82.67;52431.78;4996355;28;19929;-76
2023/03/24 09:49:53;;;;;;;;;;;;;;;-144.99;81.88;52415.47;5002605;28;19993;-76
2023/03/24 09:52:24;;;;;;;;;;;;;;;-144.99;81.07;52431.78;5002123;28;19968;-76
2023/03/24 09:54:53;;;;;;;;;;;;;;;-144.99;81.05;52415.47;5016245;28;19929;-81
2023/03/24 09:57:21;;;;;;;;;;;;;;;-144.99;81.05;52427.72;5024322;28;19934;-85
2023/03/24 09:59:49;;;;;;;;;;;;;;;-144.99;80.44;52415.47;5026120;28;19913;-82
2023/03/24 10:02:18;;;;;;;;;;;;;;;-144.99;80.27;52391.03;5025257;28;19921;-79
2023/03/24 10:04:44;;;;;;;;;;;;;;;-144.99;80.77;52448.09;5022835;28;19929;-81
2023/03/24 10:07:15;;;;;;;;;;;;;;;-144.99;80.82;52448.09;5027054;28;19929;-81
2023/03/24 10:09:45;;;;;;;;;;;;;;;-144.99;81.05;52448.09;5024780;28;19933;-78
2023/03/24 10:12:18;;;;;;;;;;;;;;;-144.99;81.69;52458.28;5025767;28;19921;-82
2023/03/24 10:14:50;;;;;;;;;;;;;;;-144.99;82.27;52448.09;5027644;28;19920;-84
2023/03/24 10:17:23;;;;;;;;;;;;;;;-144.99;81.80;52417.53;5030405;28;20133;-84
2023/03/24 10:19:55;;;;;;;;;;;;;;;-144.99;82.35;52468.47;5029940;28;19944;-81
2023/03/24 10:22:24;;;;;;;;;;;;;;;-144.99;81.95;52435.88;5025509;28;19936;-79
2023/03/24 10:24:55;;;;;;;;;;;;;;;-144.99;82.65;52464.41;5028837;28;19960;-80
2023/03/24 10:27:25;;;;;;;;;;;;;;;-144.99;83.46;52460.31;5029922;28;20151;-84
2023/03/24 10:29:54;;;;;;;;;;;;;;;-144.99;84.24;52456.25;5030477;28;19913;-81
2023/03/24 10:32:24;;;;;;;;;;;;;;;-144.99;84.36;52468.47;5030472;28;19993;-82
2023/03/24 10:34:53;;;;;;;;;;;;;;;-144.99;83.52;52435.88;5030524;28;19930;-82
2023/03/24 10:37:19;;;;;;;;;;;;;;;-144.99;83.23;52427.72;5031227;28;19924;-81
2023/03/24 10:39:46;;;;;;;;;;;;;;;-144.99;82.35;52423.63;5024849;28;19913;-82
2023/03/24 10:42:15;;;;;;;;;;;;;;;-144.99;80.97;52444.03;5029865;28;19927;-81
2023/03/24 10:44:42;;;;;;;;;;;;;;;-144.99;81.02;52439.94;5026799;28;20264;-82
2023/03/24 10:47:11;;;;;;;;;;;;;;;-144.99;81.42;52435.88;5027271;28;19933;-82
2023/03/24 10:49:51;;;;;;;;;;;;;;;-144.99;81.21;52448.09;5021530;28;19933;-84
2023/03/24 10:52:18;;;;;;;;;;;;;;;-144.99;80.50;52419.56;5034904;28;19914;-82
2023/03/24 10:54:53;;;;;;;;;;;;;;;-144.99;80.53;52417.53;5035489;28;19937;-84
2023/03/24 10:57:20;;;;;;;;;;;;;;;-144.99;80.83;52439.94;5026355;28;20230;-78
2023/03/24 10:59:50;;;;;;;;;;;;;;;-144.99;79.67;52452.16;5026519;28;19914;-78
2023/03/24 11:02:18;;;;;;;;;;;;;;;-144.99;78.25;52441.97;5020499;28;19913;-80
2023/03/24 11:04:50;;;;;;;;;;;;;;;-144.99;78.03;52395.09;5028424;28;19952;-80
2023/03/24 11:07:19;;;;;;;;;;;;;;;-144.99;75.69;52256.50;5025243;28;19913;-79
2023/03/24 11:09:47;;;;;;;;;;;;;;;-144.99;72.66;52285.03;5018175;28;20145;-77
2023/03/24 11:12:20;;;;;;;;;;;;;;;-144.99;72.19;52321.72;5006514;28;19953;-81
2023/03/24 11:14:47;;;;;;;;;;;;;;;-144.99;72.19;52350.25;5007185;28;19929;-77
2023/03/24 11:17:15;;;;;;;;;;;;;;;-144.99;72.86;52374.72;5010203;28;20098;-80
2023/03/24 11:19:50;;;;;;;;;;;;;;;-144.99;71.63;52378.78;5009302;28;19941;-74
2023/03/24 11:22:16;;;;;;;;;;;;;;;-144.99;71.71;52378.78;5004925;28;19976;-77
2023/03/24 11:24:43;;;;;;;;;;;;;;;-144.99;73.25;52391.03;5010085;28;19968;-80
2023/03/24 11:27:14;;;;;;;;;;;;;;;-144.99;73.61;52321.72;5003514;28;20441;-80
2023/03/24 11:29:41;;;;;;;;;;;;;;;-144.99;73.54;52179.06;5003436;28;19930;-76
2023/03/24 11:32:12;;;;;;;;;;;;;;;-144.99;71.83;52346.19;5002189;28;19933;-80
2023/03/24 11:34:41;;;;;;;;;;;;;;;-144.99;71.78;52352.28;5005962;28;20138;-78
2023/03/24 11:37:12;;;;;;;;;;;;;;;-144.99;71.85;52374.72;4997924;28;20254;-77
2023/03/24 11:39:38;;;;;;;;;;;;;;;-144.99;72.63;52395.09;5004301;28;20018;-78
2023/03/24 11:42:06;;;;;;;;;;;;;;;-144.99;73.06;52386.94;5003579;28;19999;-81
2023/03/24 11:44:41;;;;;;;;;;;;;;;-144.99;73.80;52370.63;5005794;28;19969;-78
2023/03/24 11:47:10;;;;;;;;;;;;;;;-144.99;73.92;52386.94;5004879;28;20242;-79
2023/03/24 11:49:39;;;;;;;;;;;;;;;-144.99;74.73;52427.72;5003818;28;20355;-80
2023/03/24 11:52:09;;;;;;;;;;;;;;;-144.99;75.63;52391.03;5010130;28;19936;-76
2023/03/24 11:54:37;;;;;;;;;;;;;;;-144.99;75.67;52421.59;5007843;28;20056;-75
2023/03/24 11:57:07;;;;;;;;;;;;;;;-144.99;76.02;52452.16;5005274;28;19984;-79
2023/03/24 11:59:37;;;;;;;;;;;;;;;-144.99;76.16;52399.19;5007094;28;20271;-77
2023/03/24 12:02:12;;;;;;;;;;;;;;;-144.99;76.31;52407.31;4658772;28;10000531;-76
2023/03/24 12:04:45;;;;;;;;;;;;;;;-144.99;74.86;52264.66;5004175;28;20007;-72
2023/03/24 12:07:30;;;;;;;;;;;;;;;-144.99;74.61;52382.88;5001889;28;19948;-73
2023/03/24 12:10:01;;;;;;;;;;;;;;;-144.99;75.00;52415.47;5001804;28;20383;-79
2023/03/24 12:12:35;;;;;;;;;;;;;;;-144.99;75.60;52444.03;5000455;28;19936;-79
2023/03/24 12:15:16;;;;;;;;;;;;;;;-144.99;74.69;52203.50;5005158;28;20387;-78
2023/03/24 12:17:48;;;;;;;;;;;;;;;-144.99;72.09;52201.47;5005432;28;19964;-79
2023/03/24 12:20:21;;;;;;;;;;;;;;;-144.99;69.27;52181.09;5004117;28;20236;-78
2023/03/24 12:22:52;;;;;;;;;;;;;;;-144.99;68.07;52138.28;5009084;28;19968;-79
2023/03/24 12:25:29;;;;;;;;;;;;;;;-144.99;68.36;52317.66;5007708;28;19936;-80
2023/03/24 12:28:03;;;;;;;;;;;;;;;-144.99;67.68;52272.81;5008882;28;19929;-79
2023/03/24 12:30:33;;;;;;;;;;;;;;;-144.99;67.80;52168.84;5004015;28;19961;-79